aviador You're here:

KXNO Decoded Metar

in
Report Time2018-07-16 07:56:00
UTC Time2018-07-16 08:34:19
Flight Rules vfr VFR
WindCalm
Visibility9999 m
Phenomena:N/A
Clouds:Broken 100 Hf
Broken 130 Hf
Expected CloudBase > 800 ft AGL from Temp-Dew spread
Ceiling10,000 ft
Temp22°C
Dew Point20°C (88% RH)
QNH1017 hPa
Raw Report
METAR KXNO 160756Z AUTO 00000KT 10SM BKN100 BKN130 22/20 A3004 RMK
AO2 SLP172 T02180197 $=

Extra information for KXNO:More info

Social comments